Página principal
METAR-TAF:

METAR-TAF

Aeroportos :

Kulob, Tadjiquistão

latitude: 37-59-18N, longitude: 069-48-18E, altura: 699 m

Observação actual do tempo

O boletim foi feito há 25 minutos, às 17:30 UTC
Vento 10 kt de nor-nordeste
Temperatura 23°C
Humidade 33%
Pressão 1015 hPa
Visibilidade 10 km ou mais

METAR: UTDK 181730Z 02005MPS 9999 NSC 23/06 Q1015 R01/09//70 RMK QFE704/0938

Hora: 22:55 (17:55 UTC)

Previsão

O boletim foi feito há 2 horas e 55 minutos, às 15:00 UTC
Previsão válida de 18 às 16 UTC a 19 às 01 UTC
Vento 10 kt de nor-nordeste
Visibilidade: 6000 m
Poucas nuvensa uma altura de 6600 ft
Nuvens dispersasa uma altura de 13000 ft

TAF: UTDK 181500Z 1816/1901 03005MPS 6000 FEW066 SCT130

Observações e previsões do tempo de mais de 4000 aeroportos (mensagens METAR e TAF).

As estações disponíveis são os pontos amarelos e vermelhos sobre o mapa.

Mova o rato sobre o mapa para ver o nome da estação.

Depois clique no ponto para visualizar as observações e previsões meteorológicas.

Para alterar o mapa : clique nos botões verdes com uma cruz preta para aumentar o zoom; no botão verde com uma pitada de zoom; ou nas setas verdes para mapas adjacentes.


METAR-TAF: